Time;durP1;ratioP1;P1;durP2;ratioP2;P2;SDS_P1;SDS_P2;PMS_P1;PMS_P2;Temp;Humidity;BMP_temperature;BMP_pressure;BME280_temperature;BME280_humidity;BME280_pressure;Samples;Min_cycle;Max_cycle;Signal;HPM_P1;HPM_P2
2022/01/07 00:00:34;;;;;;;6.40;2.15;;;;;;;0.70;58.32;100467.06;6328627;28;20047;-76
2022/01/07 00:03:35;;;;;;;3.72;1.98;;;;;;;0.70;59.89;100482.47;6311411;28;20562;-77
2022/01/07 00:06:36;;;;;;;7.70;2.53;;;;;;;0.69;58.49;100486.75;6345258;28;20040;-76
2022/01/07 00:09:37;;;;;;;7.78;2.85;;;;;;;0.73;59.33;100495.28;6328956;28;20039;-85
2022/01/07 00:12:37;;;;;;;4.28;2.25;;;;;;;0.71;59.90;100503.00;6345686;28;20096;-85
2022/01/07 00:15:40;;;;;;;10.30;2.78;;;;;;;0.65;60.93;100500.50;6345986;28;20036;-86
2022/01/07 00:18:43;;;;;;;6.68;2.40;;;;;;;0.56;60.69;100500.66;6346546;28;20058;-84
2022/01/07 00:21:44;;;;;;;4.40;2.20;;;;;;;0.58;62.77;100510.03;6329318;28;20048;-84
2022/01/07 00:24:45;;;;;;;5.45;2.60;;;;;;;0.51;61.23;100508.38;6345790;28;20051;-85
2022/01/07 00:27:46;;;;;;;12.13;3.83;;;;;;;0.40;60.06;100508.53;6346404;28;20084;-83
2022/01/07 00:30:47;;;;;;;7.25;2.60;;;;;;;0.52;60.25;100512.66;6346912;28;20483;-84
2022/01/07 00:33:48;;;;;;;5.68;2.25;;;;;;;0.54;60.88;100522.94;6330996;28;20039;-83
2022/01/07 00:36:49;;;;;;;5.38;2.53;;;;;;;0.55;61.53;100522.03;6348397;28;20042;-84
2022/01/07 00:39:49;;;;;;;5.82;2.08;;;;;;;0.62;63.57;100533.09;6349169;28;20047;-83
2022/01/07 00:42:52;;;;;;;5.13;2.00;;;;;;;0.48;60.88;100538.41;6347759;28;20032;-84
2022/01/07 00:45:52;;;;;;;;;;;;;;;0.52;61.13;100545.22;6317560;28;20059;-83
2022/01/07 00:48:53;;;;;;;4.10;2.00;;;;;;;0.48;61.81;100551.25;6346121;28;19931;-75
2022/01/07 00:51:54;;;;;;;6.82;2.20;;;;;;;0.44;63.73;100554.72;6347533;28;20044;-84
2022/01/07 00:54:55;;;;;;;6.30;2.17;;;;;;;0.38;62.50;100561.59;6330658;28;20172;-83
2022/01/07 00:57:56;;;;;;;4.63;2.25;;;;;;;0.32;64.84;100564.25;6330200;28;20043;-83
2022/01/07 01:00:57;;;;;;;3.55;1.90;;;;;;;0.26;65.52;100564.31;6348649;28;20498;-83
2022/01/07 01:03:58;;;;;;;5.90;2.55;;;;;;;0.25;64.41;100575.47;6330146;28;20043;-83
2022/01/07 01:06:59;;;;;;;6.22;2.53;;;;;;;0.29;68.17;100581.38;6346444;28;20052;-82
2022/01/07 01:09:59;;;;;;;8.07;2.63;;;;;;;0.29;67.64;100578.81;6329783;28;20040;-82
2022/01/07 01:13:00;;;;;;;5.38;2.38;;;;;;;0.19;68.32;100588.34;6346750;28;20100;-82
2022/01/07 01:16:01;;;;;;;8.38;2.92;;;;;;;0.14;68.79;100583.25;6329573;28;20100;-82
2022/01/07 01:19:03;;;;;;;5.95;2.70;;;;;;;0.04;67.83;100579.06;6330151;28;20381;-81
2022/01/07 01:22:04;;;;;;;3.90;2.22;;;;;;;0.02;68.13;100583.34;6352685;28;20127;-82
2022/01/07 01:25:06;;;;;;;6.63;2.80;;;;;;;-0.02;68.87;100592.81;6351820;28;20542;-82
2022/01/07 01:28:07;;;;;;;9.32;3.40;;;;;;;-0.01;70.16;100584.25;6352674;28;20051;-82
2022/01/07 01:31:08;;;;;;;6.30;2.58;;;;;;;-0.03;71.48;100593.66;6352772;28;20044;-81
2022/01/07 01:34:09;;;;;;;6.00;2.83;;;;;;;-0.11;69.86;100581.78;6334459;28;20036;-81
2022/01/07 01:37:10;;;;;;;5.90;2.90;;;;;;;-0.17;71.88;100589.53;6351564;28;20384;-81
2022/01/07 01:40:11;;;;;;;5.80;2.42;;;;;;;-0.27;71.32;100589.63;6334466;28;20454;-81
2022/01/07 01:43:12;;;;;;;6.53;2.47;;;;;;;-0.32;70.92;100593.91;6352505;28;20050;-82
2022/01/07 01:46:13;;;;;;;5.95;2.67;;;;;;;-0.34;74.78;100599.94;6333745;28;20377;-76
2022/01/07 01:49:13;;;;;;;6.13;2.53;;;;;;;-0.37;74.88;100599.94;6332762;28;20039;-81
2022/01/07 01:52:14;;;;;;;6.20;2.45;;;;;;;-0.43;75.55;100601.69;6349332;28;20051;-76
2022/01/07 01:55:17;;;;;;;5.80;2.80;;;;;;;-0.51;72.69;100605.19;6348776;28;20518;-76
2022/01/07 01:58:17;;;;;;;;;;;;;;;-0.50;74.40;100606.88;6350178;28;20067;-76
2022/01/07 02:01:19;;;;;;;5.07;2.70;;;;;;;-0.57;73.53;100605.22;6349619;28;19919;-76
2022/01/07 02:04:20;;;;;;;4.15;2.42;;;;;;;-0.65;75.13;100616.34;6331454;28;20126;-76
2022/01/07 02:07:25;;;;;;;8.07;3.20;;;;;;;-0.72;71.89;100616.38;6349512;28;20043;-76
2022/01/07 02:10:26;;;;;;;7.05;3.03;;;;;;;-0.70;72.64;100609.53;6348272;28;20039;-76
2022/01/07 02:13:27;;;;;;;4.75;2.65;;;;;;;-0.70;75.87;100610.41;6349623;28;20047;-81
2022/01/07 02:16:29;;;;;;;9.45;2.90;;;;;;;-0.84;76.14;100610.50;6351392;28;20037;-81
2022/01/07 02:19:30;;;;;;;6.93;2.65;;;;;;;-0.79;75.16;100628.41;6350298;28;20040;-81
2022/01/07 02:22:31;;;;;;;5.55;2.40;;;;;;;-0.77;73.13;100613.03;6332857;28;20420;-81
2022/01/07 02:25:32;;;;;;;5.05;2.33;;;;;;;-0.87;74.39;100619.91;6332988;28;20042;-80
2022/01/07 02:28:36;;;;;;;6.70;2.75;;;;;;;-0.89;74.61;100629.31;6349948;28;20476;-80
2022/01/07 02:31:37;;;;;;;7.30;2.42;;;;;;;-0.88;75.03;100633.59;6332029;28;20048;-80
2022/01/07 02:34:38;;;;;;;6.28;2.65;;;;;;;-0.94;73.76;100631.03;6349869;28;20112;-81
2022/01/07 02:37:39;;;;;;;7.68;2.45;;;;;;;-0.98;74.30;100627.63;6349546;28;20039;-80
2022/01/07 02:40:40;;;;;;;9.00;2.63;;;;;;;-0.98;73.69;100630.19;6350683;28;20476;-80
2022/01/07 02:43:41;;;;;;;7.45;2.58;;;;;;;-0.95;74.02;100637.84;6350883;28;20039;-81
2022/01/07 02:46:42;;;;;;;5.22;2.13;;;;;;;-0.97;74.19;100631.03;6332300;28;20100;-81
2022/01/07 02:49:43;;;;;;;4.93;2.20;;;;;;;-1.05;73.47;100634.50;6330729;28;20062;-76
2022/01/07 02:52:44;;;;;;;6.85;2.88;;;;;;;-1.12;74.44;100626.84;6347011;28;20048;-76
2022/01/07 02:55:45;;;;;;;6.00;2.47;;;;;;;-1.10;71.89;100640.50;6347068;28;20488;-76
2022/01/07 02:58:46;;;;;;;7.85;2.65;;;;;;;-1.17;71.14;100649.91;6346907;28;20502;-76
2022/01/07 03:01:46;;;;;;;8.43;2.92;;;;;;;-1.07;74.19;100640.47;6346911;28;20039;-76
2022/01/07 03:04:47;;;;;;;6.28;2.95;;;;;;;-1.15;74.91;100642.19;6348145;28;20127;-76
2022/01/07 03:07:49;;;;;;;12.18;3.67;;;;;;;-1.15;75.20;100647.31;6329799;28;20036;-76
2022/01/07 03:10:50;;;;;;;13.63;4.95;;;;;;;-1.22;73.76;100647.34;6346737;28;20070;-76
2022/01/07 03:13:51;;;;;;;8.75;3.53;;;;;;;-1.26;73.52;100637.97;6329650;28;20488;-76
2022/01/07 03:16:51;;;;;;;17.05;4.70;;;;;;;-1.24;74.56;100643.94;6346530;28;20052;-77
2022/01/07 03:19:52;;;;;;;9.82;4.20;;;;;;;-1.19;76.85;100650.75;6346454;28;20613;-76
2022/01/07 03:22:53;;;;;;;13.77;3.72;;;;;;;-1.17;77.32;100659.28;6329274;28;20521;-76
2022/01/07 03:25:54;;;;;;;11.68;3.85;;;;;;;-1.23;77.99;100661.03;6346610;28;20096;-80
2022/01/07 03:28:54;;;;;;;11.93;3.53;;;;;;;-1.26;78.81;100658.47;6346824;28;20094;-77
2022/01/07 03:31:55;;;;;;;8.00;4.05;;;;;;;-1.26;77.91;100658.47;6346312;28;20059;-76
2022/01/07 03:34:56;;;;;;;7.15;3.25;;;;;;;-1.29;78.57;100663.59;6346008;28;20535;-76
2022/01/07 03:37:57;;;;;;;5.85;3.17;;;;;;;-1.38;78.43;100660.19;6347416;28;20039;-77
2022/01/07 03:40:58;;;;;;;7.53;2.88;;;;;;;-1.45;77.20;100662.78;6346914;28;20040;-76
2022/01/07 03:43:59;;;;;;;8.82;3.10;;;;;;;-1.43;78.91;100661.06;6345963;28;20059;-76
2022/01/07 03:46:59;;;;;;;5.28;2.88;;;;;;;-1.48;79.54;100664.50;6345787;28;20103;-76
2022/01/07 03:50:00;;;;;;;5.60;2.88;;;;;;;-1.51;79.14;100664.50;6347031;28;20035;-76
2022/01/07 03:53:01;;;;;;;8.07;2.92;;;;;;;-1.56;80.47;100668.78;6328810;28;20047;-76
2022/01/07 03:56:02;;;;;;;12.13;3.30;;;;;;;-1.60;79.86;100667.09;6345574;28;20111;-75
2022/01/07 03:59:05;;;;;;;8.80;2.97;;;;;;;-1.68;79.35;100667.94;6345762;28;20043;-77
2022/01/07 04:02:05;;;;;;;6.38;3.60;;;;;;;-1.76;79.54;100669.66;6345321;28;20032;-76
2022/01/07 04:05:07;;;;;;;7.57;3.33;;;;;;;-1.82;81.16;100657.72;6345409;28;20043;-76
2022/01/07 04:08:09;;;;;;;7.00;3.08;;;;;;;-1.82;82.85;100667.09;6328593;28;20043;-76
2022/01/07 04:11:10;;;;;;;6.20;2.83;;;;;;;-1.79;80.46;100676.47;6328461;28;20127;-76
2022/01/07 04:14:11;;;;;;;6.10;3.08;;;;;;;-1.82;81.28;100669.66;6346316;28;20043;-76
2022/01/07 04:17:11;;;;;;;7.38;3.25;;;;;;;-1.89;80.96;100673.09;6345407;28;20040;-76
2022/01/07 04:20:15;;;;;;;8.00;3.10;;;;;;;-1.92;81.83;100671.34;6328412;28;20502;-76
2022/01/07 04:23:16;;;;;;;8.70;3.25;;;;;;;-1.90;83.70;100677.31;6346284;28;20522;-76
2022/01/07 04:26:17;;;;;;;9.57;3.55;;;;;;;-1.95;84.51;100685.88;6345038;28;20118;-76
2022/01/07 04:29:17;;;;;;;6.53;3.22;;;;;;;-1.98;85.83;100689.25;6345414;28;20036;-76
2022/01/07 04:32:18;;;;;;;10.50;3.83;;;;;;;-1.93;84.77;100690.13;6345002;28;20047;-76
2022/01/07 04:35:20;;;;;;;8.43;3.15;;;;;;;-2.11;83.10;100690.09;6328116;28;20047;-76
2022/01/07 04:38:21;;;;;;;7.30;3.10;;;;;;;-2.10;85.27;100697.78;6346073;28;20125;-76
2022/01/07 04:41:22;;;;;;;8.88;3.90;;;;;;;-2.07;86.80;100705.44;6344926;28;20124;-77
2022/01/07 04:44:23;;;;;;;6.70;3.63;;;;;;;-2.18;88.69;100704.59;6344708;28;20483;-77
2022/01/07 04:47:25;;;;;;;12.48;5.30;;;;;;;-2.27;85.99;100694.34;6344657;28;20531;-76
2022/01/07 04:50:26;;;;;;;39.50;15.13;;;;;;;-2.32;86.96;100704.56;6344699;28;20420;-80
2022/01/07 04:53:27;;;;;;;26.63;11.35;;;;;;;-2.33;86.98;100702.84;6345996;28;20043;-80
2022/01/07 04:56:28;;;;;;;22.42;9.38;;;;;;;-2.31;86.95;100720.75;6344636;28;20039;-76
2022/01/07 04:59:28;;;;;;;17.00;7.82;;;;;;;-2.41;87.13;100709.63;6345695;28;20067;-76
2022/01/07 05:02:29;;;;;;;12.77;5.90;;;;;;;-2.63;86.21;100708.75;6344278;28;20038;-75
2022/01/07 05:05:30;;;;;;;12.30;5.38;;;;;;;-2.66;88.08;100719.81;6327486;28;20039;-75
2022/01/07 05:08:31;;;;;;;11.15;5.45;;;;;;;-2.60;87.92;100711.28;6345562;28;20048;-75
2022/01/07 05:11:34;;;;;;;;;;;;;;;-2.59;87.94;100720.69;6346024;28;20411;-75
2022/01/07 05:14:34;;;;;;;13.82;5.50;;;;;;;-2.58;87.23;100718.97;6344273;28;19920;-75
2022/01/07 05:17:35;;;;;;;11.60;5.47;;;;;;;-2.56;88.57;100723.22;6344283;28;20127;-75
2022/01/07 05:20:36;;;;;;;16.40;5.43;;;;;;;-2.57;90.15;100734.31;6345603;28;20107;-75
2022/01/07 05:23:43;;;;;;;13.85;5.70;;;;;;;-2.56;90.82;100736.00;6345470;28;20472;-75
2022/01/07 05:26:44;;;;;;;19.25;7.20;;;;;;;-2.58;89.82;100731.75;6326741;28;20055;-80
2022/01/07 05:29:44;;;;;;;14.15;6.97;;;;;;;-2.68;89.41;100730.84;6327399;28;20043;-80
2022/01/07 05:32:45;;;;;;;20.85;8.05;;;;;;;-2.68;90.29;100730.84;6344108;28;20039;-80
2022/01/07 05:35:46;;;;;;;22.90;8.80;;;;;;;-2.66;91.66;100734.25;6346851;28;20071;-80
2022/01/07 05:38:47;;;;;;;24.73;12.25;;;;;;;-2.87;96.40;100733.31;6346757;28;20044;-80
2022/01/07 05:41:48;;;;;;;28.00;11.05;;;;;;;-2.77;92.23;100738.50;6311594;28;20077;-80
2022/01/07 05:44:48;;;;;;;27.52;11.20;;;;;;;-2.83;90.46;100736.75;6346728;28;20467;-80
2022/01/07 05:47:49;;;;;;;28.13;11.60;;;;;;;-2.89;91.36;100740.13;6346569;28;20112;-80
2022/01/07 05:50:50;;;;;;;27.27;10.48;;;;;;;-2.81;90.71;100746.97;6328611;28;20078;-80
2022/01/07 05:53:51;;;;;;;21.65;9.10;;;;;;;-2.79;93.33;100746.13;6346820;28;20059;-82
2022/01/07 05:56:52;;;;;;;21.48;8.90;;;;;;;-2.91;91.98;100741.81;6329213;28;20088;-81
2022/01/07 05:59:52;;;;;;;19.15;8.98;;;;;;;-2.92;92.36;100741.84;6313736;28;20036;-81
2022/01/07 06:02:53;;;;;;;18.88;8.70;;;;;;;-2.97;92.42;100754.56;6328488;28;20407;-82
2022/01/07 06:05:54;;;;;;;14.38;7.50;;;;;;;-2.96;92.41;100761.38;6298297;28;20048;-80
2022/01/07 06:08:55;;;;;;;17.33;7.50;;;;;;;-2.99;92.16;100760.50;6349909;28;20043;-80
2022/01/07 06:11:55;;;;;;;14.20;7.18;;;;;;;-3.01;92.12;100762.19;6349717;28;20089;-80
2022/01/07 06:14:57;;;;;;;15.35;6.88;;;;;;;-2.95;93.54;100769.88;6332847;28;20122;-81
2022/01/07 06:17:59;;;;;;;16.95;8.40;;;;;;;-3.01;91.62;100778.34;6333019;28;20384;-83
2022/01/07 06:21:00;;;;;;;19.45;9.45;;;;;;;-3.00;92.45;100774.97;6351284;28;20071;-81
2022/01/07 06:24:01;;;;;;;19.70;8.38;;;;;;;-3.08;92.17;100772.38;6350014;28;20488;-82
2022/01/07 06:27:02;;;;;;;16.60;8.88;;;;;;;-3.07;91.58;100774.09;6350266;28;20042;-76
2022/01/07 06:30:03;;;;;;;16.58;8.35;;;;;;;-2.98;93.03;100786.06;6315204;28;20039;-82
2022/01/07 06:33:04;;;;;;;19.13;9.50;;;;;;;-3.01;91.56;100783.47;6350222;28;20219;-82
2022/01/07 06:36:05;;;;;;;17.55;8.75;;;;;;;-3.09;88.22;100783.44;6349818;28;20280;-80
2022/01/07 06:39:06;;;;;;;18.58;9.18;;;;;;;-3.09;89.35;100787.66;6331533;28;20044;-80
2022/01/07 06:42:07;;;;;;;22.52;9.98;;;;;;;-3.07;88.65;100788.53;6349300;28;20396;-80
2022/01/07 06:45:08;;;;;;;22.85;9.93;;;;;;;-3.04;90.75;100786.88;6331840;28;20050;-81
2022/01/07 06:48:09;;;;;;;163.55;68.03;;;;;;;-3.11;85.61;100782.56;6331959;28;20046;-81
2022/01/07 06:51:10;;;;;;;26.77;11.85;;;;;;;-3.00;85.08;100786.91;6313941;28;20039;-81
2022/01/07 06:54:11;;;;;;;35.58;16.88;;;;;;;-2.81;86.74;100798.06;6300504;28;20042;-75
2022/01/07 06:57:12;;;;;;;45.38;20.00;;;;;;;-2.72;88.89;100798.09;6289896;28;20051;-75
2022/01/07 07:00:13;;;;;;;19.33;9.77;;;;;;;-2.83;83.53;100795.50;6329586;28;20043;-75
2022/01/07 07:03:14;;;;;;;19.90;9.75;;;;;;;-2.80;83.41;100800.63;6328833;28;20478;-75
2022/01/07 07:06:15;;;;;;;17.20;8.13;;;;;;;-2.66;82.34;100809.22;6306121;28;20044;-76
2022/01/07 07:09:17;;;;;;;16.17;7.53;;;;;;;-2.64;81.60;100812.66;6275972;28;20466;-76
2022/01/07 07:12:18;;;;;;;15.60;6.93;;;;;;;-2.56;81.10;100804.16;6305344;28;20097;-76
2022/01/07 07:15:19;;;;;;;18.17;7.50;;;;;;;-2.35;83.33;100811.06;6312855;28;20044;-76
2022/01/07 07:18:21;;;;;;;21.15;9.20;;;;;;;-2.22;82.95;100817.94;6347549;28;20472;-76
2022/01/07 07:21:21;;;;;;;30.02;11.63;;;;;;;-2.25;79.86;100805.97;6330464;28;20071;-81
2022/01/07 07:24:22;;;;;;;27.30;11.77;;;;;;;-2.25;79.55;100797.47;6349445;28;20406;-81
2022/01/07 07:27:23;;;;;;;25.52;10.85;;;;;;;-2.14;79.81;100808.59;6312919;28;20039;-76
2022/01/07 07:30:26;;;;;;;23.42;8.82;;;;;;;-1.97;79.49;100807.78;6347369;28;20410;-76
2022/01/07 07:36:30;;;;;;;21.33;7.20;;;;;;;-1.72;77.12;100809.53;6331690;28;19924;-84
2022/01/07 07:39:31;;;;;;;16.27;7.13;;;;;;;-1.58;78.29;100814.66;6316138;28;20036;-83
2022/01/07 07:42:31;;;;;;;18.00;8.50;;;;;;;-1.45;78.48;100811.25;6330403;28;20078;-77
2022/01/07 07:45:32;;;;;;;23.77;9.18;;;;;;;-1.42;74.59;100800.19;6329188;28;20475;-77
2022/01/07 07:48:34;;;;;;;88.57;34.70;;;;;;;-1.31;73.26;100803.56;6313202;28;20118;-85
2022/01/07 07:51:35;;;;;;;85.68;35.95;;;;;;;-1.17;73.29;100805.25;6328691;28;20039;-84
2022/01/07 07:54:36;;;;;;;86.10;39.97;;;;;;;-0.95;72.30;100811.22;6308912;28;20085;-85
2022/01/07 07:57:37;;;;;;;75.68;38.47;;;;;;;-0.88;72.07;100802.69;6326147;28;20032;-85
2022/01/07 08:00:38;;;;;;;41.95;23.42;;;;;;;-0.85;70.19;100803.50;6330567;28;20070;-86
2022/01/07 08:03:40;;;;;;;16.98;8.65;;;;;;;-0.71;69.89;100803.47;6330964;28;20036;-84
2022/01/07 08:06:41;;;;;;;15.85;7.63;;;;;;;-0.58;70.15;100811.13;6347935;28;20043;-77
2022/01/07 08:09:43;;;;;;;13.45;6.47;;;;;;;-0.46;66.13;100818.78;6314316;28;20381;-84
2022/01/07 08:12:53;;;;;;;12.18;5.63;;;;;;;-0.26;66.91;100816.16;6346476;28;20477;-85
2022/01/07 08:15:59;;;;;;;10.38;5.63;;;;;;;-0.05;64.31;100815.19;6313235;28;20040;-85
2022/01/07 08:19:00;;;;;;;11.93;6.05;;;;;;;0.06;63.31;100817.69;6312717;28;20044;-85
2022/01/07 08:22:02;;;;;;;11.55;5.40;;;;;;;-0.08;59.81;100807.53;6329230;28;20056;-85
2022/01/07 08:25:04;;;;;;;16.23;6.75;;;;;;;0.08;60.07;100810.84;6312645;28;20104;-84
2022/01/07 08:28:06;;;;;;;18.27;7.55;;;;;;;0.36;60.11;100812.38;6346829;28;20052;-84
2022/01/07 08:37:30;;;;;;;10.30;4.07;;;;;;;0.34;58.18;100813.25;6330210;28;20123;-84
2022/01/07 08:40:31;;;;;;;7.40;3.95;;;;;;;0.38;57.79;100809.81;6327390;28;20118;-84
2022/01/07 08:43:32;;;;;;;10.13;4.22;;;;;;;0.46;56.46;100809.75;6336673;28;20040;-85
2022/01/07 08:46:33;;;;;;;9.02;4.13;;;;;;;0.72;56.38;100807.84;6324066;28;20040;-84
2022/01/07 08:49:34;;;;;;;9.15;4.45;;;;;;;0.88;55.00;100811.09;6329649;28;20393;-85
2022/01/07 08:52:35;;;;;;;7.53;3.75;;;;;;;0.93;53.49;100818.78;6313209;28;20048;-84
2022/01/07 08:55:35;;;;;;;10.55;4.70;;;;;;;1.12;54.77;100814.31;6314261;28;20039;-84
2022/01/07 08:58:36;;;;;;;8.10;4.18;;;;;;;1.41;55.08;100816.56;6313319;28;20046;-83
2022/01/07 09:01:37;;;;;;;8.40;4.22;;;;;;;1.57;52.36;100817.25;6347292;28;20547;-84
2022/01/07 09:08:38;;;;;;;7.97;4.07;;;;;;;1.45;51.68;100818.25;6338303;28;20036;-85
2022/01/07 09:11:39;;;;;;;11.45;4.85;;;;;;;1.74;51.71;100817.06;6346720;28;20181;-77
2022/01/07 09:14:40;;;;;;;9.23;3.58;;;;;;;1.55;50.90;100811.28;6309885;28;20040;-78
2022/01/07 09:17:41;;;;;;;6.93;3.50;;;;;;;1.77;49.96;100810.16;6326517;28;20445;-77
2022/01/07 09:20:44;;;;;;;7.40;3.38;;;;;;;1.71;49.68;100811.94;6327738;28;20036;-77
2022/01/07 09:23:45;;;;;;;6.22;3.03;;;;;;;1.64;49.16;100807.75;6328512;28;20127;-78
2022/01/07 09:26:46;;;;;;;10.65;4.55;;;;;;;1.84;48.86;100803.19;6328813;28;20048;-77
2022/01/07 09:29:47;;;;;;;7.57;3.80;;;;;;;1.89;49.38;100811.69;6311683;28;20058;-78
2022/01/07 09:32:48;;;;;;;8.45;3.92;;;;;;;1.89;48.21;100797.97;6295275;28;20058;-77
2022/01/07 09:35:51;;;;;;;12.48;3.92;;;;;;;1.80;47.76;100798.97;6346376;28;20048;-78
2022/01/07 09:38:51;;;;;;;7.72;3.92;;;;;;;2.06;48.16;100788.31;6312299;28;20039;-77
2022/01/07 09:41:52;;;;;;;9.98;4.45;;;;;;;2.07;48.54;100794.31;6290005;28;20138;-87
2022/01/07 09:44:53;;;;;;;7.32;3.78;;;;;;;2.31;48.93;100806.00;6343257;28;20124;-86
2022/01/07 09:47:55;;;;;;;8.40;4.07;;;;;;;2.41;48.28;100797.25;6351968;28;20036;-88
2022/01/07 09:50:56;;;;;;;8.63;4.03;;;;;;;2.68;48.24;100795.06;6333714;28;20048;-78
2022/01/07 09:54:00;;;;;;;9.48;3.53;;;;;;;2.71;47.90;100785.56;6313529;28;20047;-87
2022/01/07 09:57:01;;;;;;;7.47;3.25;;;;;;;2.79;47.20;100778.56;6338832;28;20114;-89
2022/01/07 10:00:06;;;;;;;15.05;5.47;;;;;;;2.72;46.89;100776.13;6352315;28;20043;-88
2022/01/07 10:03:10;;;;;;;7.82;3.90;;;;;;;2.54;46.74;100778.13;6316523;28;20050;-88
2022/01/07 10:06:25;;;;;;;10.00;3.70;;;;;;;2.57;45.58;100766.91;6351171;28;20122;-88
2022/01/07 10:09:26;;;;;;;8.23;3.50;;;;;;;2.46;48.03;100768.84;6311095;28;20043;-78
2022/01/07 10:12:30;;;;;;;5.68;3.00;;;;;;;2.78;45.74;100771.72;6311331;28;20529;-78
2022/01/07 10:15:35;;;;;;;7.93;3.80;;;;;;;2.93;47.76;100772.34;6316696;28;20080;-90
2022/01/07 10:18:37;;;;;;;9.30;3.78;;;;;;;3.14;46.84;100763.34;6321247;28;20048;-88
2022/01/07 10:21:38;;;;;;;7.95;3.20;;;;;;;3.19;44.44;100758.94;6307334;28;20040;-90
2022/01/07 10:24:54;;;;;;;9.57;4.13;;;;;;;2.92;45.91;100750.84;6309489;28;20090;-89
2022/01/07 10:28:19;;;;;;;9.50;5.07;;;;;;;3.29;45.07;100752.72;6324612;28;20384;-89
2022/01/07 10:31:24;;;;;;;9.13;3.63;;;;;;;3.00;43.97;100746.38;6337203;27;20051;-91
2022/01/07 10:34:25;;;;;;;6.05;2.92;;;;;;;3.00;42.51;100745.53;6333898;28;20040;-91
2022/01/07 10:37:26;;;;;;;5.38;3.10;;;;;;;2.76;42.10;100736.53;6348497;28;20046;-89
2022/01/07 10:40:38;;;;;;;8.70;2.83;;;;;;;3.10;43.53;100735.91;6313597;28;20506;-89
2022/01/07 10:43:39;;;;;;;10.45;3.70;;;;;;;3.21;42.70;100737.41;6334015;28;20047;-87
2022/01/07 10:46:40;;;;;;;8.13;3.05;;;;;;;2.89;43.53;100732.88;6338740;28;20035;-87
2022/01/07 10:49:45;;;;;;;6.85;3.30;;;;;;;3.03;41.88;100730.88;6314322;28;20040;-87
2022/01/07 10:52:46;;;;;;;5.65;2.83;;;;;;;3.29;42.34;100729.50;6269861;28;20057;-86
2022/01/07 10:56:06;;;;;;;7.15;3.20;;;;;;;3.15;42.63;100728.94;6222063;28;20061;-87
2022/01/07 10:59:12;;;;;;;10.43;3.70;;;;;;;3.22;44.13;100723.63;6270480;28;20041;-86
2022/01/07 11:02:13;;;;;;;6.88;2.90;;;;;;;3.25;41.86;100727.88;6236000;28;20122;-87
2022/01/07 11:05:14;;;;;;;12.90;3.42;;;;;;;2.99;42.88;100725.81;6207489;28;20064;-87
2022/01/07 11:08:16;;;;;;;4.97;2.75;;;;;;;3.34;41.31;100719.13;6220179;28;20044;-86
2022/01/07 11:11:18;;;;;;;8.85;3.08;;;;;;;3.29;41.98;100689.97;6268969;28;20057;-87
2022/01/07 11:14:31;;;;;;;9.20;3.42;;;;;;;3.48;41.89;100711.06;6242528;28;20125;-86
2022/01/07 11:17:31;;;;;;;4.43;2.15;;;;;;;2.95;38.62;100701.81;6268484;28;20045;-78
2022/01/07 11:20:33;;;;;;;12.77;2.85;;;;;;;2.99;40.33;100706.03;6268572;28;20056;-79
2022/01/07 11:23:37;;;;;;;8.63;3.10;;;;;;;3.11;43.09;100702.38;6251669;28;20045;-86
2022/01/07 11:27:03;;;;;;;4.78;2.60;;;;;;;2.69;40.53;100693.72;6249918;28;20045;-78
2022/01/07 11:30:07;;;;;;;7.30;2.65;;;;;;;2.91;41.86;100699.34;6268056;28;20060;-79
2022/01/07 11:33:18;;;;;;;6.85;2.40;;;;;;;3.20;41.24;100704.75;6266452;28;20048;-78
2022/01/07 11:36:37;;;;;;;8.20;2.97;;;;;;;3.35;41.37;100689.84;6241012;28;20541;-86
2022/01/07 11:39:40;;;;;;;4.72;1.83;;;;;;;2.95;42.12;100685.50;6263449;28;20057;-78
2022/01/07 11:42:44;;;;;;;5.07;2.55;;;;;;;3.08;42.75;100684.38;6264615;28;20056;-85
2022/01/07 11:45:46;;;;;;;3.75;2.30;;;;;;;3.27;38.83;100687.41;6218257;28;20580;-78
2022/01/07 11:48:47;;;;;;;4.20;2.00;;;;;;;3.27;38.74;100676.25;6232766;28;20081;-87
2022/01/07 11:51:47;;;;;;;6.00;2.63;;;;;;;3.02;39.10;100677.59;6312989;28;20096;-78
2022/01/07 11:55:26;;;;;;;8.15;2.65;;;;;;;3.26;39.92;100672.00;6329738;28;20036;-79
2022/01/07 11:58:42;;;;;;;5.18;2.55;;;;;;;3.43;42.45;100678.47;6332579;28;20047;-86
2022/01/07 12:01:43;;;;;;;4.80;2.70;;;;;;;3.62;40.70;100666.03;6346867;28;20067;-78
2022/01/07 12:04:44;;;;;;;4.80;2.47;;;;;;;3.61;43.10;100672.06;6347179;28;20050;-91
2022/01/07 12:07:48;;;;;;;5.78;3.10;;;;;;;3.61;42.57;100669.47;6314114;28;20048;-91
2022/01/07 12:11:05;;;;;;;11.30;2.97;;;;;;;3.48;42.94;100662.03;6331209;28;20031;-90
2022/01/07 12:14:14;;;;;;;5.57;2.83;;;;;;;3.18;42.52;100660.09;6314853;28;20040;-88
2022/01/07 12:17:17;;;;;;;10.43;3.58;;;;;;;3.19;44.42;100648.91;6326682;28;20051;-90
2022/01/07 12:20:37;;;;;;;;;;;;;;;3.44;42.03;100656.13;6293199;28;20502;-83
2022/01/07 12:23:39;;;;;;;6.30;3.38;;;;;;;3.36;41.43;100645.13;6327658;28;20371;-78
2022/01/07 12:26:40;;;;;;;15.10;6.40;;;;;;;3.32;42.30;100656.38;6327712;28;20044;-77
2022/01/07 12:29:43;;;;;;;8.88;4.15;;;;;;;2.67;42.81;100644.78;6326947;28;20042;-84
2022/01/07 12:32:44;;;;;;;9.07;3.78;;;;;;;2.78;42.61;100652.28;6345649;28;20088;-78
2022/01/07 12:35:45;;;;;;;8.85;4.25;;;;;;;2.95;44.29;100632.22;6310533;28;20449;-78
2022/01/07 12:38:58;;;;;;;11.20;4.93;;;;;;;3.29;43.88;100634.06;6293844;28;20058;-84
2022/01/07 12:41:59;;;;;;;9.05;3.95;;;;;;;3.33;43.17;100621.97;6302581;28;20488;-78
2022/01/07 12:45:00;;;;;;;5.82;2.72;;;;;;;3.26;40.89;100617.84;6302444;28;20917;-78
2022/01/07 12:48:01;;;;;;;10.27;4.57;;;;;;;2.97;43.39;100627.88;6294750;28;20046;-78
2022/01/07 12:51:04;;;;;;;9.27;4.43;;;;;;;3.14;44.03;100630.09;6311806;28;20475;-78
2022/01/07 12:54:06;;;;;;;7.43;3.47;;;;;;;2.94;41.72;100622.75;6312015;28;20035;-85
2022/01/07 12:57:07;;;;;;;6.15;3.28;;;;;;;2.95;43.76;100623.63;6345374;28;20499;-84
2022/01/07 13:00:13;;;;;;;9.27;4.18;;;;;;;3.10;42.67;100622.47;6328143;28;20096;-84
2022/01/07 13:03:16;;;;;;;9.40;4.32;;;;;;;3.02;42.94;100631.19;6305250;28;20100;-79
2022/01/07 13:06:16;;;;;;;7.80;3.28;;;;;;;2.74;42.64;100624.88;6310891;28;20040;-78
2022/01/07 13:09:25;;;;;;;7.13;3.30;;;;;;;2.64;43.03;100624.25;6327403;28;20043;-78
2022/01/07 13:12:27;;;;;;;8.70;3.92;;;;;;;2.45;42.85;100618.59;6329926;28;20426;-79
2022/01/07 13:15:39;;;;;;;13.50;6.07;;;;;;;2.58;43.41;100624.34;6294630;28;20036;-79
2022/01/07 13:18:43;;;;;;;10.88;4.18;;;;;;;2.74;44.18;100618.03;6312228;28;20381;-88
2022/01/07 13:21:46;;;;;;;8.07;3.95;;;;;;;2.73;43.26;100613.75;6313615;28;20051;-88
2022/01/07 13:24:48;;;;;;;7.90;3.30;;;;;;;2.63;44.51;100614.78;6335541;28;20415;-91
2022/01/07 13:27:49;;;;;;;5.87;3.03;;;;;;;2.62;43.26;100608.81;6353391;27;20467;-77
2022/01/07 13:30:49;;;;;;;8.65;3.55;;;;;;;2.44;44.51;100604.00;6306567;28;20035;-77
2022/01/07 13:33:52;;;;;;;8.23;3.65;;;;;;;2.33;44.96;100600.78;6308665;28;20036;-77
2022/01/07 13:37:03;;;;;;;17.70;5.45;;;;;;;2.23;45.80;100592.38;6326907;28;20349;-77
2022/01/07 13:40:05;;;;;;;24.27;8.52;;;;;;;2.36;46.97;100598.13;6324798;28;20068;-77
2022/01/07 13:43:16;;;;;;;7.32;3.45;;;;;;;2.33;46.19;100586.19;6310124;28;20036;-89
2022/01/07 13:46:23;;;;;;;8.43;3.67;;;;;;;2.30;45.30;100586.22;6329057;28;20040;-90
2022/01/07 13:49:25;;;;;;;9.30;4.10;;;;;;;2.07;45.53;100576.34;6329252;28;20492;-92
2022/01/07 13:52:29;;;;;;;6.60;3.40;;;;;;;2.03;45.80;100585.00;6311496;28;20727;-93
2022/01/07 13:55:33;;;;;;;7.43;3.67;;;;;;;1.98;46.29;100586.81;6328660;28;20047;-90
2022/01/07 13:58:34;;;;;;;8.23;3.55;;;;;;;2.13;47.41;100581.38;6350551;28;20111;-90
2022/01/07 14:01:35;;;;;;;6.72;3.63;;;;;;;2.09;47.35;100591.75;6354483;28;20036;-89
2022/01/07 14:04:39;;;;;;;8.75;3.40;;;;;;;1.98;46.09;100584.25;6355800;27;20043;-91
2022/01/07 14:07:53;;;;;;;7.38;3.42;;;;;;;1.84;47.18;100581.88;6340900;28;20388;-89
2022/01/07 14:10:54;;;;;;;8.80;4.20;;;;;;;1.73;46.77;100579.50;6337977;28;20048;-89
2022/01/07 14:14:12;;;;;;;9.25;4.47;;;;;;;1.59;47.77;100578.88;6353610;28;20093;-77
2022/01/07 14:17:12;;;;;;;11.20;4.32;;;;;;;1.53;48.63;100571.25;6351829;28;20040;-89
2022/01/07 14:20:14;;;;;;;8.80;4.32;;;;;;;1.46;49.22;100578.19;6354172;28;20032;-89
2022/01/07 14:23:25;;;;;;;8.77;3.53;;;;;;;1.41;48.70;100573.13;6353960;28;20044;-90